Time;durP1;ratioP1;P1;durP2;ratioP2;P2;SDS_P1;SDS_P2;PMS_P1;PMS_P2;Temp;Humidity;BMP_temperature;BMP_pressure;BME280_temperature;BME280_humidity;BME280_pressure;Samples;Min_cycle;Max_cycle;Signal;HPM_P1;HPM_P2
2022/01/29 00:01:01;;;;;;;56.28;26.60;;;4.30;99.90;;;;;;5025723;28;20114;-74
2022/01/29 00:03:30;;;;;;;71.80;31.92;;;4.30;99.90;;;;;;5025972;28;20076;-74
2022/01/29 00:05:58;;;;;;;79.10;34.08;;;4.40;99.90;;;;;;5006605;28;20103;-74
2022/01/29 00:08:25;;;;;;;76.18;36.22;;;4.30;99.90;;;;;;5034514;28;20322;-73
2022/01/29 00:10:56;;;;;;;77.82;34.85;;;4.40;99.90;;;;;;5031292;28;20045;-73
2022/01/29 00:13:23;;;;;;;76.10;34.08;;;4.40;99.90;;;;;;5038228;28;20044;-73
2022/01/29 00:15:49;;;;;;;68.47;33.50;;;4.40;99.90;;;;;;5046416;28;20037;-74
2022/01/29 00:18:16;;;;;;;77.38;35.65;;;4.40;99.90;;;;;;5045874;28;20079;-74
2022/01/29 00:20:43;;;;;;;79.57;36.35;;;4.40;99.90;;;;;;5037974;28;20144;-74
2022/01/29 00:23:09;;;;;;;76.00;34.47;;;4.40;99.90;;;;;;5043554;28;20087;-74
2022/01/29 00:25:36;;;;;;;64.07;29.05;;;4.40;99.90;;;;;;5043058;28;20045;-74
2022/01/29 00:28:03;;;;;;;73.22;33.22;;;4.40;99.90;;;;;;5024755;28;20484;-74
2022/01/29 00:30:36;;;;;;;71.60;32.50;;;4.50;99.90;;;;;;5024461;28;20229;-74
2022/01/29 00:33:03;;;;;;;64.47;30.52;;;4.40;99.90;;;;;;5025990;28;20435;-74
2022/01/29 00:35:30;;;;;;;56.47;26.95;;;4.50;99.90;;;;;;5024344;28;20041;-75
2022/01/29 00:37:57;;;;;;;68.65;30.27;;;4.50;99.90;;;;;;5025021;28;20076;-74
2022/01/29 00:40:24;;;;;;;53.08;27.83;;;4.50;99.90;;;;;;5033143;28;20045;-74
2022/01/29 00:42:51;;;;;;;68.57;30.38;;;4.50;99.90;;;;;;5042894;28;20131;-74
2022/01/29 00:45:18;;;;;;;55.00;27.60;;;4.50;99.90;;;;;;5025221;28;20057;-74
2022/01/29 00:47:45;;;;;;;67.18;27.23;;;4.50;99.90;;;;;;5029025;28;20135;-74
2022/01/29 00:50:11;;;;;;;53.70;25.40;;;4.50;99.90;;;;;;5022255;28;20549;-74
2022/01/29 00:52:38;;;;;;;56.03;28.30;;;4.50;99.90;;;;;;5019268;28;20277;-74
2022/01/29 00:55:08;;;;;;;51.67;25.30;;;4.50;99.90;;;;;;5024930;28;20045;-71
2022/01/29 00:57:38;;;;;;;54.65;26.85;;;4.50;99.90;;;;;;5024321;28;20045;-74
2022/01/29 01:00:10;;;;;;;56.28;26.98;;;4.60;99.90;;;;;;5025011;28;20083;-74
2022/01/29 01:02:37;;;;;;;52.72;25.38;;;4.60;99.90;;;;;;5042657;22;20152;-75
2022/01/29 01:05:05;;;;;;;54.08;26.50;;;4.60;99.90;;;;;;5056690;28;20048;-75
2022/01/29 01:07:32;;;;;;;53.28;26.77;;;4.60;99.90;;;;;;5054682;28;20312;-76
2022/01/29 01:09:59;;;;;;;47.97;25.15;;;4.60;99.90;;;;;;5055600;28;20073;-73
2022/01/29 01:12:25;;;;;;;47.83;22.88;;;4.60;99.90;;;;;;5051899;28;20310;-75
2022/01/29 01:14:52;;;;;;;49.40;23.13;;;4.60;99.90;;;;;;5056282;28;20049;-74
2022/01/29 01:17:19;;;;;;;47.90;24.35;;;4.60;99.90;;;;;;5055542;28;20076;-74
2022/01/29 01:19:46;;;;;;;42.22;23.48;;;4.60;99.90;;;;;;5055674;28;20148;-75
2022/01/29 01:22:15;;;;;;;46.45;23.17;;;4.60;99.90;;;;;;5055329;28;20109;-75
2022/01/29 01:24:42;;;;;;;49.53;21.83;;;4.60;99.90;;;;;;5055265;28;20052;-74
2022/01/29 01:27:09;;;;;;;41.33;22.15;;;4.70;99.90;;;;;;5037099;28;20528;-74
2022/01/29 01:29:35;;;;;;;39.22;19.52;;;4.70;99.90;;;;;;5055112;28;20151;-75
2022/01/29 01:32:03;;;;;;;47.63;22.08;;;4.70;99.90;;;;;;5055324;28;20480;-73
2022/01/29 01:34:33;;;;;;;36.28;17.73;;;4.70;99.90;;;;;;5037842;28;20488;-71
2022/01/29 01:37:07;;;;;;;40.63;19.02;;;4.80;99.90;;;;;;5037541;28;20060;-75
2022/01/29 01:39:36;;;;;;;43.65;21.25;;;4.80;99.90;;;;;;5052045;28;20072;-74
2022/01/29 01:42:05;;;;;;;39.17;19.42;;;4.80;99.90;;;;;;5035842;28;20250;-72
2022/01/29 01:44:33;;;;;;;40.13;20.23;;;4.80;99.90;;;;;;5037151;28;20049;-74
2022/01/29 01:47:00;;;;;;;44.60;23.13;;;4.80;99.90;;;;;;5055275;28;20155;-74
2022/01/29 01:49:27;;;;;;;38.10;18.13;;;4.80;99.90;;;;;;5037237;28;20139;-75
2022/01/29 01:51:54;;;;;;;44.40;20.92;;;4.80;99.90;;;;;;5054908;28;20553;-74
2022/01/29 01:54:21;;;;;;;45.15;21.10;;;4.80;99.90;;;;;;5054246;28;20040;-73
2022/01/29 01:56:48;;;;;;;38.50;19.20;;;4.80;99.90;;;;;;5036641;28;20148;-74
2022/01/29 01:59:15;;;;;;;34.92;21.60;;;4.90;99.90;;;;;;5053603;28;20052;-73
2022/01/29 02:01:42;;;;;;;45.30;20.70;;;4.80;99.90;;;;;;5054331;28;20124;-76
2022/01/29 02:04:09;;;;;;;34.42;19.02;;;4.80;99.90;;;;;;5037281;28;20058;-74
2022/01/29 02:06:36;;;;;;;37.10;20.15;;;4.80;99.90;;;;;;5063545;28;20462;-73
2022/01/29 02:09:03;;;;;;;45.72;22.20;;;4.80;99.90;;;;;;5043939;28;20155;-75
2022/01/29 02:11:30;;;;;;;38.90;19.40;;;4.80;99.90;;;;;;5053368;28;20670;-74
2022/01/29 02:13:58;;;;;;;44.63;20.75;;;4.80;99.90;;;;;;5035349;28;20052;-72
2022/01/29 02:16:31;;;;;;;39.65;20.77;;;4.70;99.90;;;;;;5036328;28;20127;-73
2022/01/29 02:18:57;;;;;;;38.47;20.45;;;4.70;99.90;;;;;;5053814;28;20056;-73
2022/01/29 02:21:28;;;;;;;38.63;21.95;;;4.70;99.90;;;;;;5037409;28;20705;-73
2022/01/29 02:23:54;;;;;;;49.40;22.67;;;4.80;99.90;;;;;;5039901;28;20052;-72
2022/01/29 02:26:21;;;;;;;47.65;21.80;;;4.80;99.90;;;;;;5053401;28;20133;-73
2022/01/29 02:28:48;;;;;;;31.60;17.67;;;4.80;99.90;;;;;;5053258;28;20086;-72
2022/01/29 02:31:15;;;;;;;45.92;24.40;;;4.70;99.90;;;;;;5052747;28;20047;-73
2022/01/29 02:33:43;;;;;;;51.53;25.15;;;4.70;99.90;;;;;;5053925;28;20048;-75
2022/01/29 02:36:10;;;;;;;45.90;24.35;;;4.80;99.90;;;;;;5036856;28;20076;-73
2022/01/29 02:38:37;;;;;;;53.38;27.25;;;4.70;99.90;;;;;;5053887;28;20129;-74
2022/01/29 02:41:06;;;;;;;55.38;27.05;;;4.80;99.90;;;;;;5057737;28;20599;-74
2022/01/29 02:43:42;;;;;;;55.60;26.80;;;4.80;99.90;;;;;;5046722;28;20043;-74
2022/01/29 02:46:30;;;;;;;47.53;22.23;;;4.70;99.90;;;;;;5075281;28;20701;-73
2022/01/29 02:48:57;;;;;;;49.65;26.50;;;4.70;99.90;;;;;;5028838;28;20186;-74
2022/01/29 02:51:24;;;;;;;52.92;23.90;;;4.70;99.90;;;;;;5054321;28;20127;-74
2022/01/29 02:53:52;;;;;;;51.22;25.65;;;4.70;99.90;;;;;;5055549;28;20268;-73
2022/01/29 02:56:18;;;;;;;59.65;27.90;;;4.70;99.90;;;;;;5054738;28;20064;-73
2022/01/29 02:58:46;;;;;;;52.80;28.13;;;4.70;99.90;;;;;;5035513;28;20052;-74
2022/01/29 03:01:13;;;;;;;56.83;26.23;;;4.70;99.90;;;;;;5055194;28;20068;-73
2022/01/29 03:03:40;;;;;;;60.03;27.48;;;4.70;99.90;;;;;;5037339;28;20063;-73
2022/01/29 03:06:09;;;;;;;44.08;22.00;;;4.60;99.90;;;;;;5042646;28;20040;-72
2022/01/29 03:08:37;;;;;;;60.55;26.73;;;4.60;99.90;;;;;;5049095;28;20045;-74
2022/01/29 03:11:05;;;;;;;66.57;30.10;;;4.60;99.90;;;;;;5052863;28;20056;-72
2022/01/29 03:13:32;;;;;;;67.53;30.25;;;4.50;99.90;;;;;;5054066;28;20078;-75
2022/01/29 03:15:59;;;;;;;66.47;31.42;;;4.60;99.90;;;;;;5036969;28;20041;-74
2022/01/29 03:18:25;;;;;;;53.67;28.63;;;4.60;99.90;;;;;;5035344;28;20052;-73
2022/01/29 03:20:52;;;;;;;66.15;28.83;;;4.60;99.90;;;;;;5054456;28;20274;-73
2022/01/29 03:23:19;;;;;;;61.53;30.95;;;4.60;99.90;;;;;;5054993;28;20064;-73
2022/01/29 03:25:46;;;;;;;65.22;28.75;;;4.60;99.90;;;;;;5036497;28;20328;-74
2022/01/29 03:28:13;;;;;;;59.10;29.45;;;4.60;99.90;;;;;;5036051;28;20794;-74
2022/01/29 03:30:40;;;;;;;58.15;29.13;;;4.60;99.90;;;;;;5036256;28;20535;-75
2022/01/29 03:33:07;;;;;;;62.13;29.05;;;4.70;99.90;;;;;;5055113;28;20048;-72
2022/01/29 03:35:33;;;;;;;62.22;31.55;;;4.70;99.90;;;;;;5054975;28;20060;-74
2022/01/29 03:38:00;;;;;;;63.85;30.73;;;4.70;99.90;;;;;;5054281;28;20144;-74
2022/01/29 03:40:28;;;;;;;63.92;28.90;;;4.70;99.90;;;;;;5035114;28;20398;-75
2022/01/29 03:43:08;;;;;;;66.82;30.80;;;4.70;99.90;;;;;;5035171;28;20087;-75
2022/01/29 03:45:35;;;;;;;57.05;26.23;;;4.70;99.90;;;;;;5054631;28;20060;-73
2022/01/29 03:48:02;;;;;;;66.72;32.65;;;4.70;99.90;;;;;;5034759;28;20390;-73
2022/01/29 03:50:29;;;;;;;66.13;30.60;;;4.70;99.90;;;;;;5035836;28;20117;-75
2022/01/29 03:52:56;;;;;;;64.20;31.15;;;4.70;99.90;;;;;;5036132;28;20044;-72
2022/01/29 03:55:23;;;;;;;64.05;31.23;;;4.70;99.90;;;;;;5051271;28;20106;-74
2022/01/29 03:57:49;;;;;;;67.78;30.75;;;4.70;99.90;;;;;;5034911;28;20320;-73
2022/01/29 04:00:17;;;;;;;67.35;30.65;;;4.70;99.90;;;;;;5036327;28;20102;-75
2022/01/29 04:02:43;;;;;;;64.45;29.63;;;4.70;99.90;;;;;;5034459;28;20439;-75
2022/01/29 04:05:11;;;;;;;57.28;27.02;;;4.70;99.90;;;;;;5055120;28;20489;-74
2022/01/29 04:07:39;;;;;;;65.72;30.55;;;4.70;99.90;;;;;;5034960;28;20049;-76
2022/01/29 04:10:06;;;;;;;66.20;31.55;;;4.70;99.90;;;;;;5052608;28;20480;-74
2022/01/29 04:12:39;;;;;;;60.17;28.83;;;4.70;99.90;;;;;;5051578;28;20390;-75
2022/01/29 04:15:07;;;;;;;62.90;28.65;;;4.70;99.90;;;;;;5038009;28;20040;-76
2022/01/29 04:17:34;;;;;;;62.03;30.63;;;4.60;99.90;;;;;;5056542;28;20147;-76
2022/01/29 04:20:02;;;;;;;54.63;28.58;;;4.70;99.90;;;;;;5040001;28;20101;-73
2022/01/29 04:22:29;;;;;;;64.53;27.58;;;4.60;99.90;;;;;;5057146;28;20151;-72
2022/01/29 04:24:55;;;;;;;50.60;24.05;;;4.60;99.90;;;;;;5056055;28;20125;-75
2022/01/29 04:27:32;;;;;;;69.07;32.50;;;4.60;99.90;;;;;;5039017;28;20037;-75
2022/01/29 04:30:02;;;;;;;58.85;27.90;;;4.70;99.90;;;;;;5022934;28;20053;-78
2022/01/29 04:32:57;;;;;;;70.68;32.42;;;4.70;99.90;;;;;;5036982;28;20753;-75
2022/01/29 04:35:19;;;;;;;65.90;28.70;;;4.70;99.90;;;;;;5037697;28;20052;-74
2022/01/29 04:37:50;;;;;;;62.30;30.52;;;4.70;99.90;;;;;;5055984;28;20283;-76
2022/01/29 04:40:18;;;;;;;50.60;26.08;;;4.70;99.90;;;;;;5037927;28;20099;-76
2022/01/29 04:42:45;;;;;;;65.32;29.35;;;4.70;99.90;;;;;;5025389;28;20036;-75
2022/01/29 04:45:13;;;;;;;61.78;30.10;;;4.70;99.90;;;;;;5038900;28;20077;-73
2022/01/29 04:47:40;;;;;;;59.90;29.45;;;4.70;99.90;;;;;;5067745;28;20216;-74
2022/01/29 04:50:07;;;;;;;57.25;27.52;;;4.80;99.90;;;;;;5054169;28;20109;-75
2022/01/29 04:52:34;;;;;;;57.55;28.52;;;4.80;99.90;;;;;;5035226;28;20568;-76
2022/01/29 04:55:01;;;;;;;55.83;28.60;;;4.80;99.90;;;;;;5056047;28;20045;-75
2022/01/29 04:57:28;;;;;;;60.53;29.80;;;4.80;99.90;;;;;;5036023;28;20309;-74
2022/01/29 04:59:55;;;;;;;54.40;27.92;;;4.80;99.90;;;;;;5052609;28;20416;-74
2022/01/29 05:02:22;;;;;;;56.55;28.85;;;4.80;99.90;;;;;;5052988;28;20318;-75
2022/01/29 05:04:49;;;;;;;60.90;29.48;;;4.80;99.90;;;;;;5020843;28;20048;-76
2022/01/29 05:07:15;;;;;;;59.42;27.55;;;4.90;99.90;;;;;;5068250;28;20547;-75
2022/01/29 05:09:42;;;;;;;53.83;25.83;;;4.90;99.90;;;;;;5054222;28;20144;-75
2022/01/29 05:12:10;;;;;;;56.13;28.35;;;4.80;99.90;;;;;;5052164;28;20490;-73
2022/01/29 05:26:50;;;;;;;53.00;25.77;;;4.90;99.90;;;;;;5035246;28;20151;-74
2022/01/29 05:28:19;;;;;;;72.00;27.90;;;4.80;99.90;;;;;;5053379;28;20105;-77
2022/01/29 05:30:46;;;;;;;57.67;24.85;;;4.90;99.90;;;;;;5036450;28;20529;-75
2022/01/29 05:33:13;;;;;;;78.30;32.92;;;4.90;99.90;;;;;;5036706;28;20526;-75
2022/01/29 05:35:39;;;;;;;60.03;25.27;;;4.90;99.90;;;;;;5036393;28;20040;-74
2022/01/29 05:38:06;;;;;;;59.33;24.52;;;4.90;99.90;;;;;;5035361;28;20052;-73
2022/01/29 05:40:33;;;;;;;68.20;29.75;;;4.80;99.90;;;;;;5052650;28;20141;-76
2022/01/29 05:42:59;;;;;;;64.72;28.20;;;4.90;99.90;;;;;;5035183;28;20052;-75
2022/01/29 05:45:26;;;;;;;62.05;24.90;;;4.90;99.90;;;;;;5053116;28;20068;-76
2022/01/29 05:47:53;;;;;;;73.30;27.95;;;4.90;99.90;;;;;;5048406;28;20285;-74
2022/01/29 05:50:20;;;;;;;56.90;25.90;;;4.80;99.90;;;;;;5056428;28;20074;-76
2022/01/29 05:52:47;;;;;;;54.83;24.65;;;4.90;99.90;;;;;;5075965;28;20068;-73
2022/01/29 05:55:14;;;;;;;70.72;30.60;;;4.90;99.90;;;;;;5046967;28;20056;-74
2022/01/29 05:57:40;;;;;;;65.60;27.77;;;4.90;99.90;;;;;;5053470;28;20333;-77
2022/01/29 06:00:08;;;;;;;61.13;27.80;;;5.00;99.90;;;;;;5036928;28;20052;-76
2022/01/29 06:02:40;;;;;;;55.42;25.58;;;4.90;99.90;;;;;;5054084;28;20559;-77
2022/01/29 06:05:08;;;;;;;44.13;20.67;;;4.90;99.90;;;;;;5054965;28;20113;-77
2022/01/29 06:07:34;;;;;;;46.85;20.92;;;5.00;99.90;;;;;;5070714;28;20746;-75
2022/01/29 06:10:01;;;;;;;57.10;25.27;;;5.00;99.90;;;;;;5048713;28;20109;-78
2022/01/29 06:12:36;;;;;;;44.97;20.40;;;5.00;99.90;;;;;;5053350;28;20408;-76
2022/01/29 06:15:03;;;;;;;53.28;23.70;;;5.00;99.90;;;;;;5037974;28;20740;-78
2022/01/29 06:17:30;;;;;;;35.95;17.60;;;5.00;99.90;;;;;;5054653;28;20154;-75
2022/01/29 06:19:57;;;;;;;40.38;18.77;;;5.00;99.90;;;;;;5056402;28;20045;-77
2022/01/29 06:22:25;;;;;;;48.97;22.05;;;5.00;99.90;;;;;;5055186;28;20116;-76
2022/01/29 06:24:52;;;;;;;41.15;18.83;;;5.00;99.90;;;;;;5057011;28;20418;-77
2022/01/29 06:27:19;;;;;;;49.85;22.55;;;5.00;99.90;;;;;;5038488;28;20558;-77
2022/01/29 06:29:45;;;;;;;41.60;20.67;;;5.00;99.90;;;;;;5035287;28;20068;-76
2022/01/29 06:32:12;;;;;;;33.80;16.60;;;5.00;99.90;;;;;;5019103;28;20109;-77
2022/01/29 06:34:39;;;;;;;37.08;18.33;;;5.00;99.90;;;;;;5054926;28;20041;-76
2022/01/29 06:37:05;;;;;;;36.38;16.52;;;5.00;99.90;;;;;;5032312;28;20044;-74
2022/01/29 06:39:32;;;;;;;37.75;16.98;;;5.00;99.90;;;;;;5052231;28;20520;-77
2022/01/29 06:41:59;;;;;;;38.92;19.90;;;5.00;99.90;;;;;;5035796;28;20175;-77
2022/01/29 06:44:26;;;;;;;40.67;18.33;;;5.00;99.90;;;;;;5040510;28;20558;-75
2022/01/29 06:46:52;;;;;;;36.22;18.60;;;5.00;99.90;;;;;;5060067;28;20048;-75
2022/01/29 06:49:19;;;;;;;33.63;17.10;;;5.00;99.90;;;;;;5036289;28;20056;-76
2022/01/29 06:51:46;;;;;;;42.70;19.05;;;5.00;99.90;;;;;;5052632;28;20056;-77
2022/01/29 06:54:13;;;;;;;38.80;20.23;;;5.10;99.90;;;;;;5036214;28;20118;-76
2022/01/29 06:56:39;;;;;;;36.70;19.55;;;5.10;99.90;;;;;;5035234;28;20139;-76
2022/01/29 06:59:06;;;;;;;29.73;16.15;;;5.10;99.90;;;;;;5036800;28;20451;-76
2022/01/29 07:01:35;;;;;;;29.77;17.90;;;5.10;99.90;;;;;;5054126;28;20079;-77
2022/01/29 07:04:02;;;;;;;36.90;19.80;;;5.20;99.90;;;;;;5037196;28;20546;-78
2022/01/29 07:06:29;;;;;;;33.70;17.83;;;5.20;99.90;;;;;;5060877;28;20516;-79
2022/01/29 07:08:58;;;;;;;40.95;21.02;;;5.20;99.90;;;;;;5054875;28;20304;-77
2022/01/29 07:11:25;;;;;;;35.95;18.08;;;5.20;99.90;;;;;;5033323;28;20455;-78
2022/01/29 07:14:00;;;;;;;37.25;20.33;;;5.20;99.90;;;;;;5052375;28;20559;-77
2022/01/29 07:16:29;;;;;;;36.55;19.08;;;5.30;99.90;;;;;;5062499;28;20117;-76
2022/01/29 07:18:56;;;;;;;38.92;19.00;;;5.30;99.90;;;;;;5056816;28;20056;-76
2022/01/29 07:21:23;;;;;;;36.20;19.30;;;5.30;99.90;;;;;;5052605;28;20720;-77
2022/01/29 07:23:50;;;;;;;35.15;18.98;;;5.30;99.90;;;;;;5035777;28;20045;-78
2022/01/29 07:26:17;;;;;;;31.73;16.23;;;5.30;99.90;;;;;;5035831;28;20044;-76
2022/01/29 07:28:43;;;;;;;30.20;16.10;;;5.30;99.90;;;;;;5052870;28;20068;-76
2022/01/29 07:31:10;;;;;;;31.55;16.25;;;5.30;99.90;;;;;;5033235;28;20578;-77
2022/01/29 07:33:37;;;;;;;26.25;16.33;;;5.40;99.90;;;;;;5035596;28;20056;-75
2022/01/29 07:36:04;;;;;;;28.83;16.00;;;5.40;99.90;;;;;;5035966;28;20456;-77
2022/01/29 07:38:31;;;;;;;29.55;17.55;;;5.40;99.90;;;;;;5052523;28;20888;-73
2022/01/29 07:40:58;;;;;;;37.10;20.90;;;5.40;99.90;;;;;;5058484;28;20512;-76
2022/01/29 07:43:25;;;;;;;33.92;19.63;;;5.40;99.90;;;;;;5071579;28;20051;-75
2022/01/29 07:45:51;;;;;;;29.83;16.15;;;5.40;99.90;;;;;;5069444;28;20545;-76
2022/01/29 07:48:18;;;;;;;28.55;15.93;;;5.40;99.90;;;;;;5019931;28;20402;-76
2022/01/29 07:50:45;;;;;;;35.28;20.30;;;5.40;99.90;;;;;;5038448;28;20095;-76
2022/01/29 07:53:12;;;;;;;34.33;19.63;;;5.50;99.90;;;;;;5040042;28;20044;-75
2022/01/29 07:55:39;;;;;;;32.97;17.55;;;5.50;99.90;;;;;;5056671;28;20045;-76
2022/01/29 07:58:05;;;;;;;25.98;15.45;;;5.50;99.90;;;;;;5036298;28;20084;-78
2022/01/29 08:00:35;;;;;;;25.80;14.98;;;5.50;99.90;;;;;;5040148;28;20131;-75
2022/01/29 08:03:02;;;;;;;28.40;17.75;;;5.60;99.90;;;;;;5059000;28;20049;-76
2022/01/29 08:05:30;;;;;;;31.00;18.10;;;5.60;99.90;;;;;;5038884;28;20060;-77
2022/01/29 08:07:56;;;;;;;25.95;14.65;;;5.60;99.90;;;;;;5052879;28;20098;-75
2022/01/29 08:10:23;;;;;;;26.95;16.55;;;5.60;99.90;;;;;;5035924;28;20131;-78
2022/01/29 08:12:50;;;;;;;20.00;13.23;;;5.60;99.90;;;;;;5054692;28;20603;-74
2022/01/29 08:15:17;;;;;;;31.60;17.35;;;5.60;99.90;;;;;;5057810;28;20395;-75
2022/01/29 08:17:43;;;;;;;26.38;15.35;;;5.70;99.90;;;;;;5037806;28;20139;-74
2022/01/29 08:20:12;;;;;;;29.50;16.90;;;5.70;99.90;;;;;;5055910;28;20076;-75
2022/01/29 08:22:39;;;;;;;29.40;15.60;;;5.70;99.90;;;;;;5039194;28;20127;-77
2022/01/29 08:25:06;;;;;;;27.98;14.90;;;5.70;99.90;;;;;;5057709;28;20384;-75
2022/01/29 08:27:33;;;;;;;23.58;14.18;;;5.80;99.90;;;;;;5038822;28;20470;-74
2022/01/29 08:30:00;;;;;;;25.17;14.55;;;5.80;99.90;;;;;;5039710;28;20149;-79
2022/01/29 08:32:26;;;;;;;26.25;15.77;;;5.80;99.90;;;;;;5038882;28;20411;-75
2022/01/29 08:34:53;;;;;;;25.42;15.10;;;5.80;99.90;;;;;;5058196;28;20045;-77
2022/01/29 08:37:21;;;;;;;28.98;15.63;;;5.80;99.90;;;;;;5038047;28;20331;-76
2022/01/29 08:39:48;;;;;;;27.58;15.30;;;5.80;99.90;;;;;;5049022;28;20044;-77
2022/01/29 08:42:15;;;;;;;29.25;16.30;;;5.90;99.90;;;;;;5038317;28;20048;-76
2022/01/29 08:44:43;;;;;;;28.58;16.67;;;5.90;99.90;;;;;;5057308;28;20040;-75
2022/01/29 08:47:09;;;;;;;26.27;15.90;;;5.90;99.90;;;;;;5038762;28;20121;-77
2022/01/29 08:49:38;;;;;;;26.70;15.43;;;6.00;99.90;;;;;;5038499;28;20417;-76
2022/01/29 08:52:05;;;;;;;28.15;14.73;;;6.00;99.90;;;;;;5036793;28;20120;-74
2022/01/29 08:54:32;;;;;;;28.67;14.68;;;6.00;99.90;;;;;;5038852;28;20071;-75
2022/01/29 08:56:58;;;;;;;27.23;14.68;;;6.00;99.90;;;;;;5039360;28;20052;-77
2022/01/29 08:59:25;;;;;;;25.80;14.95;;;6.00;99.90;;;;;;5071322;28;20570;-75
2022/01/29 09:01:52;;;;;;;26.98;14.30;;;6.10;99.90;;;;;;5037103;28;20160;-78
2022/01/29 09:04:19;;;;;;;29.75;16.00;;;6.10;99.90;;;;;;5039961;28;20595;-76
2022/01/29 09:06:46;;;;;;;28.45;16.38;;;6.20;99.90;;;;;;5066295;28;20308;-76
2022/01/29 09:09:18;;;;;;;36.03;18.38;;;6.30;99.90;;;;;;5061350;28;20545;-77
2022/01/29 09:11:44;;;;;;;31.48;17.23;;;6.30;99.90;;;;;;5037635;28;20128;-77
2022/01/29 09:14:11;;;;;;;26.65;14.43;;;6.30;99.90;;;;;;5038987;28;20079;-76
2022/01/29 09:16:38;;;;;;;27.58;14.73;;;6.40;99.90;;;;;;5038027;28;20276;-77
2022/01/29 09:19:05;;;;;;;28.40;14.90;;;6.30;99.90;;;;;;5038414;28;20509;-75
2022/01/29 09:21:32;;;;;;;25.50;14.48;;;6.40;99.90;;;;;;5036947;28;20125;-75
2022/01/29 09:23:58;;;;;;;27.38;16.08;;;6.40;99.90;;;;;;5056723;28;20133;-76
2022/01/29 09:26:25;;;;;;;27.52;15.65;;;6.40;99.90;;;;;;5056845;28;20469;-76
2022/01/29 09:28:53;;;;;;;27.13;15.02;;;6.50;99.90;;;;;;5036995;28;20052;-77
2022/01/29 09:31:21;;;;;;;30.50;17.40;;;6.50;99.90;;;;;;5036791;28;20435;-78
2022/01/29 09:33:48;;;;;;;28.98;15.70;;;6.50;99.90;;;;;;5039341;28;20502;-75
2022/01/29 09:36:15;;;;;;;24.63;14.23;;;6.50;99.90;;;;;;5056754;28;20155;-78
2022/01/29 09:38:42;;;;;;;29.23;14.95;;;6.50;99.90;;;;;;5056147;28;20068;-78
2022/01/29 09:41:09;;;;;;;27.20;15.13;;;6.60;99.90;;;;;;5054452;28;20117;-76
2022/01/29 09:43:36;;;;;;;26.90;14.73;;;6.60;99.90;;;;;;5056498;28;20052;-76
2022/01/29 09:46:03;;;;;;;24.38;13.38;;;6.70;99.90;;;;;;5057797;28;20127;-75
2022/01/29 09:48:30;;;;;;;18.48;11.07;;;6.70;99.90;;;;;;5058351;28;20044;-74
2022/01/29 09:50:58;;;;;;;23.77;13.90;;;6.70;99.90;;;;;;5055258;28;20405;-77
2022/01/29 09:53:25;;;;;;;25.17;14.63;;;6.70;99.90;;;;;;5038619;28;20306;-77
2022/01/29 09:55:53;;;;;;;23.67;14.73;;;6.70;99.90;;;;;;5055574;28;20500;-76
2022/01/29 09:58:20;;;;;;;24.27;13.60;;;6.80;99.90;;;;;;5037011;28;20060;-76
2022/01/29 10:00:47;;;;;;;19.95;11.90;;;6.90;99.90;;;;;;5037414;28;20090;-73
2022/01/29 10:03:19;;;;;;;22.08;13.02;;;6.80;99.90;;;;;;5038815;28;20055;-76
2022/01/29 10:05:51;;;;;;;23.13;15.35;;;6.90;99.90;;;;;;5056484;28;20593;-75
2022/01/29 10:08:19;;;;;;;22.48;13.45;;;6.90;99.90;;;;;;5051888;28;20056;-75
2022/01/29 10:10:48;;;;;;;27.58;14.82;;;7.00;99.90;;;;;;5052846;28;20455;-76
2022/01/29 10:13:32;;;;;;;26.83;15.00;;;7.00;99.90;;;;;;5054855;28;20118;-76
2022/01/29 10:16:19;;;;;;;24.08;14.23;;;7.00;99.90;;;;;;5037500;28;20103;-77
2022/01/29 10:18:58;;;;;;;18.23;10.73;;;7.00;99.90;;;;;;5036723;28;20389;-77
2022/01/29 10:21:32;;;;;;;26.27;14.40;;;7.00;99.90;;;;;;5055070;28;20052;-75
2022/01/29 10:24:03;;;;;;;22.70;12.63;;;7.00;99.90;;;;;;5053741;28;20060;-77
2022/01/29 10:26:35;;;;;;;22.85;12.90;;;7.00;99.90;;;;;;5055329;28;20072;-75
2022/01/29 10:29:06;;;;;;;22.63;13.50;;;7.00;99.90;;;;;;5036866;28;20838;-76
2022/01/29 10:31:42;;;;;;;27.35;15.07;;;7.00;99.90;;;;;;5054677;28;20094;-77
2022/01/29 10:34:26;;;;;;;24.67;13.77;;;7.10;99.90;;;;;;5030900;28;20053;-77
2022/01/29 10:37:11;;;;;;;24.60;13.93;;;7.00;99.90;;;;;;5033770;28;20874;-76
2022/01/29 10:39:39;;;;;;;24.60;12.90;;;7.00;99.90;;;;;;5045863;28;20055;-76
2022/01/29 10:42:21;;;;;;;24.50;13.10;;;7.00;99.90;;;;;;5037891;28;20688;-77
2022/01/29 10:44:51;;;;;;;16.80;9.70;;;7.00;99.90;;;;;;5051486;28;20835;-77
2022/01/29 10:47:18;;;;;;;22.77;12.50;;;7.00;99.90;;;;;;5048635;28;20762;-77
2022/01/29 10:49:53;;;;;;;23.42;12.63;;;7.00;99.90;;;;;;5047408;28;20039;-76
2022/01/29 10:52:27;;;;;;;19.90;9.95;;;7.00;99.90;;;;;;5039979;28;20704;-78
2022/01/29 10:55:00;;;;;;;20.63;12.20;;;7.10;99.90;;;;;;5013512;28;20052;-77
2022/01/29 10:57:34;;;;;;;19.80;12.30;;;7.20;99.90;;;;;;5048639;28;20045;-76
2022/01/29 11:00:06;;;;;;;23.20;11.07;;;7.20;99.90;;;;;;5026678;28;20056;-77
2022/01/29 11:02:33;;;;;;;18.17;11.13;;;7.20;99.90;;;;;;5035596;28;20440;-76
2022/01/29 11:05:02;;;;;;;18.17;10.38;;;7.20;99.90;;;;;;5056065;28;20064;-77
2022/01/29 11:07:30;;;;;;;17.83;10.25;;;7.20;99.90;;;;;;5014685;28;20071;-78
2022/01/29 11:10:01;;;;;;;15.65;9.55;;;7.20;99.90;;;;;;5035229;28;20068;-78
2022/01/29 11:12:34;;;;;;;22.67;11.50;;;7.30;99.90;;;;;;5038160;28;20055;-76
2022/01/29 11:15:02;;;;;;;19.73;11.13;;;7.20;99.90;;;;;;5035677;28;20670;-77
2022/01/29 11:17:32;;;;;;;16.85;10.27;;;7.30;99.90;;;;;;5032820;28;20049;-75
2022/01/29 11:20:02;;;;;;;21.88;12.40;;;7.20;99.90;;;;;;5055188;28;20436;-75
2022/01/29 11:22:38;;;;;;;15.20;10.57;;;7.30;99.90;;;;;;5020484;28;20049;-75
2022/01/29 11:25:09;;;;;;;17.52;10.48;;;7.20;99.90;;;;;;5037372;28;20055;-73
2022/01/29 11:27:37;;;;;;;16.70;9.32;;;7.30;99.90;;;;;;5053110;28;20091;-76
2022/01/29 11:30:07;;;;;;;18.70;11.27;;;7.30;99.90;;;;;;5026545;28;20052;-78
2022/01/29 11:32:39;;;;;;;16.15;11.27;;;7.30;99.90;;;;;;5019487;28;20049;-73
2022/01/29 11:35:13;;;;;;;21.10;11.82;;;7.20;99.90;;;;;;5064506;28;20071;-77
2022/01/29 11:37:49;;;;;;;18.95;10.95;;;7.30;99.90;;;;;;5054035;28;20323;-77
2022/01/29 11:40:19;;;;;;;17.40;10.43;;;7.30;99.90;;;;;;5034830;28;20094;-77
2022/01/29 11:42:57;;;;;;;19.38;12.10;;;7.30;99.90;;;;;;5018053;28;20048;-77
2022/01/29 11:45:46;;;;;;;16.98;10.52;;;7.30;99.90;;;;;;5034762;28;20102;-80
2022/01/29 11:48:19;;;;;;;18.75;11.38;;;7.30;99.90;;;;;;5046711;28;20062;-76
2022/01/29 11:50:48;;;;;;;19.10;11.20;;;7.30;99.90;;;;;;5029414;28;20110;-77
2022/01/29 11:53:17;;;;;;;23.35;9.95;;;7.40;99.90;;;;;;5054046;28;20110;-76
2022/01/29 11:55:55;;;;;;;13.63;9.23;;;7.40;99.90;;;;;;5053102;28;20052;-78
2022/01/29 11:58:29;;;;;;;16.02;9.82;;;7.40;99.90;;;;;;5053604;28;20114;-78
2022/01/29 12:01:02;;;;;;;13.23;9.25;;;7.50;99.90;;;;;;5053462;28;20368;-77
2022/01/29 12:03:40;;;;;;;14.95;10.25;;;7.50;99.90;;;;;;5052856;28;20045;-78
2022/01/29 12:06:22;;;;;;;16.85;10.73;;;7.50;99.90;;;;;;5056822;28;20044;-77
2022/01/29 12:09:21;;;;;;;18.15;10.70;;;7.50;99.90;;;;;;5059063;28;20059;-77
2022/01/29 12:12:24;;;;;;;15.38;9.93;;;7.60;99.90;;;;;;5029181;28;20044;-76
2022/01/29 12:15:11;;;;;;;19.20;12.23;;;7.60;99.90;;;;;;5036842;28;20056;-77
2022/01/29 12:17:48;;;;;;;17.63;11.88;;;7.70;99.90;;;;;;5036645;28;20087;-76
2022/01/29 12:20:21;;;;;;;18.63;11.45;;;7.60;99.90;;;;;;5053340;28;20133;-76
2022/01/29 12:22:50;;;;;;;15.40;11.00;;;7.60;99.90;;;;;;5050423;28;20394;-77
2022/01/29 12:25:23;;;;;;;19.02;11.38;;;7.60;99.90;;;;;;5036497;28;20137;-78
2022/01/29 12:27:58;;;;;;;18.63;12.63;;;7.60;99.90;;;;;;5036423;28;20052;-78
2022/01/29 12:30:38;;;;;;;23.95;11.43;;;7.60;99.90;;;;;;5052981;28;20045;-77
2022/01/29 12:33:17;;;;;;;16.33;10.60;;;7.60;99.90;;;;;;5025628;28;20053;-76
2022/01/29 12:35:53;;;;;;;15.15;10.73;;;7.60;99.90;;;;;;5025894;28;20053;-76
2022/01/29 12:38:27;;;;;;;19.75;13.88;;;7.60;99.90;;;;;;5030946;28;20106;-76
2022/01/29 12:41:04;;;;;;;13.27;9.77;;;7.70;99.90;;;;;;5020653;28;20056;-77
2022/01/29 12:43:52;;;;;;;17.00;9.48;;;7.60;99.90;;;;;;5054495;28;20516;-76
2022/01/29 12:46:25;;;;;;;16.55;10.73;;;7.60;99.90;;;;;;5057670;28;20126;-75
2022/01/29 12:49:07;;;;;;;18.58;10.85;;;7.60;99.90;;;;;;5063529;28;20063;-76
2022/01/29 12:51:35;;;;;;;16.27;9.65;;;7.60;99.90;;;;;;5038504;28;20054;-77
2022/01/29 12:54:04;;;;;;;17.35;10.73;;;7.70;99.90;;;;;;5032575;28;20095;-77
2022/01/29 12:56:34;;;;;;;18.35;11.57;;;7.70;99.90;;;;;;5037450;28;20789;-75
2022/01/29 12:59:05;;;;;;;14.57;9.65;;;7.70;99.90;;;;;;5037531;28;20446;-77